Terminal Aerodrome Forecast
Issued by NWS Wakefield, VA

Current Version | Previous Version | Text Only | Print | Product List | Glossary On
Versions: 1 2 3 4 5 6 7 8 9 10 11 12
000
FTUS41 KAKQ 201100
TAFECG
TAF
KECG 201139Z 2012/2112 05009KT P6SM SCT050 BKN080
     FM201500 07010KT P6SM BKN050
     FM202300 04005KT P6SM BKN050=

USA.gov is the U.S. government's official web portal to all federal, state and local government web resources and services.